createdAt,value
2023-08-02T00:01:34.194Z,12.20
2023-08-02T00:04:10.250Z,16.90
2023-08-02T00:06:37.701Z,17.58
2023-08-02T00:09:04.296Z,14.63
2023-08-02T00:11:30.854Z,12.52
2023-08-02T00:13:57.408Z,14.80
2023-08-02T00:16:24.142Z,14.23
2023-08-02T00:18:50.781Z,16.90
2023-08-02T00:21:17.376Z,15.57
2023-08-02T00:23:43.959Z,17.95
2023-08-02T00:26:10.504Z,15.18
2023-08-02T00:28:37.056Z,15.90
2023-08-02T00:31:03.666Z,17.55
2023-08-02T00:33:30.345Z,13.60
2023-08-02T00:35:57.858Z,18.42
2023-08-02T00:38:24.491Z,15.55
2023-08-02T00:40:51.049Z,14.05
2023-08-02T00:43:17.645Z,21.20
2023-08-02T00:45:44.525Z,19.90
2023-08-02T00:48:11.255Z,21.30
2023-08-02T00:50:38.787Z,19.10
2023-08-02T00:53:05.456Z,21.55
2023-08-02T00:55:32.124Z,13.88
2023-08-02T00:57:58.635Z,20.95
2023-08-02T01:00:25.228Z,20.52
2023-08-02T01:02:51.813Z,22.83
2023-08-02T01:05:20.257Z,17.60
2023-08-02T01:07:59.239Z,18.90
2023-08-02T01:10:47.534Z,16.58
2023-08-02T01:13:16.394Z,20.15
2023-08-02T01:15:43.329Z,18.25
2023-08-02T01:18:10.765Z,19.02
2023-08-02T01:20:37.364Z,20.35
2023-08-02T01:23:03.914Z,22.80
2023-08-02T01:25:32.549Z,20.08
2023-08-02T01:28:04.675Z,18.50
2023-08-02T01:30:37.703Z,25.60
2023-08-02T01:33:05.459Z,22.48
2023-08-02T01:35:32.396Z,17.92
2023-08-02T01:38:00.240Z,19.90
2023-08-02T01:40:26.787Z,23.00
2023-08-02T01:42:53.322Z,22.42
2023-08-02T01:45:19.828Z,18.02
2023-08-02T01:47:46.483Z,23.27
2023-08-02T01:50:13.030Z,20.00
2023-08-02T01:52:39.547Z,15.68
2023-08-02T01:55:06.728Z,21.20
2023-08-02T01:57:33.255Z,18.67
2023-08-02T01:59:59.853Z,18.40
2023-08-02T02:02:26.477Z,16.55
2023-08-02T02:04:53.142Z,19.85
2023-08-02T02:07:19.717Z,18.88
2023-08-02T02:09:46.463Z,16.65
2023-08-02T02:12:13.086Z,21.00
2023-08-02T02:14:39.648Z,16.77
2023-08-02T02:17:06.274Z,16.92
2023-08-02T02:19:32.802Z,19.45
2023-08-02T02:21:59.428Z,20.35
2023-08-02T02:24:25.981Z,18.75
2023-08-02T02:26:52.594Z,14.50
2023-08-02T02:29:19.182Z,22.55
2023-08-02T02:31:46.121Z,18.67
2023-08-02T02:34:12.845Z,23.55
2023-08-02T02:36:39.980Z,18.35
2023-08-02T02:39:06.856Z,20.23
2023-08-02T02:41:33.423Z,17.15
2023-08-02T02:43:59.960Z,21.58
2023-08-02T02:46:26.500Z,23.75
2023-08-02T02:48:53.054Z,18.95
2023-08-02T02:51:19.621Z,22.88
2023-08-02T02:53:46.175Z,20.98
2023-08-02T02:56:12.697Z,22.83
2023-08-02T02:58:39.247Z,21.63
2023-08-02T03:01:05.878Z,26.45
2023-08-02T03:03:32.567Z,20.27
2023-08-02T03:05:59.113Z,16.40
2023-08-02T03:08:25.864Z,20.33
2023-08-02T03:10:52.455Z,20.45
2023-08-02T03:13:19.073Z,16.50
2023-08-02T03:15:45.582Z,22.40
2023-08-02T03:18:12.187Z,18.35
2023-08-02T03:20:40.322Z,22.55
2023-08-02T03:23:07.188Z,17.00
2023-08-02T03:25:33.802Z,20.45
2023-08-02T03:28:00.362Z,20.45
2023-08-02T03:30:26.958Z,20.83
2023-08-02T03:32:53.570Z,22.92
2023-08-02T03:35:20.123Z,18.10
2023-08-02T03:37:46.659Z,19.35
2023-08-02T03:40:13.191Z,20.42
2023-08-02T03:42:39.751Z,21.35
2023-08-02T03:45:06.717Z,28.15
2023-08-02T03:47:33.345Z,22.63
2023-08-02T03:49:59.893Z,19.45
2023-08-02T03:52:26.449Z,18.27
2023-08-02T03:54:53.072Z,18.77
2023-08-02T03:57:19.655Z,26.58
2023-08-02T03:59:46.178Z,19.00
2023-08-02T04:02:12.799Z,19.25
2023-08-02T04:04:40.375Z,18.92
2023-08-02T04:07:08.619Z,17.17
2023-08-02T04:09:35.202Z,17.48
2023-08-02T04:12:01.766Z,10.45
2023-08-02T04:14:28.290Z,17.08
2023-08-02T04:16:54.869Z,14.48
2023-08-02T04:19:21.453Z,15.98
2023-08-02T04:21:48.991Z,13.68
2023-08-02T04:24:15.596Z,15.27
2023-08-02T04:26:42.411Z,12.45
2023-08-02T04:29:09.614Z,14.20
2023-08-02T04:31:36.288Z,15.50
2023-08-02T04:34:02.908Z,11.05
2023-08-02T04:36:29.448Z,12.10
2023-08-02T04:38:55.959Z,20.70
2023-08-02T04:41:22.472Z,11.68
2023-08-02T04:43:49.380Z,15.32
2023-08-02T04:46:16.347Z,14.23
2023-08-02T04:48:43.063Z,12.30
2023-08-02T04:51:11.065Z,11.43
2023-08-02T04:53:37.831Z,12.10
2023-08-02T04:56:10.048Z,14.38
2023-08-02T04:58:36.851Z,15.50
2023-08-02T05:01:04.013Z,10.77
2023-08-02T05:03:30.641Z,11.82
2023-08-02T05:06:04.415Z,12.57
2023-08-02T05:08:32.357Z,14.52
2023-08-02T05:10:58.884Z,10.13
2023-08-02T05:13:26.710Z,11.38
2023-08-02T05:15:54.887Z,9.95
2023-08-02T05:18:21.455Z,10.30
2023-08-02T05:20:48.027Z,14.07
2023-08-02T05:23:14.645Z,11.85
2023-08-02T05:25:41.197Z,10.75
2023-08-02T05:28:07.762Z,17.85
2023-08-02T05:30:36.024Z,11.40
2023-08-02T05:33:02.630Z,11.82
2023-08-02T05:35:31.035Z,9.27
2023-08-02T05:37:57.875Z,9.15
2023-08-02T05:40:24.472Z,9.15
2023-08-02T05:42:51.065Z,9.65
2023-08-02T05:45:17.692Z,10.43
2023-08-02T05:47:44.303Z,10.75
2023-08-02T05:50:10.941Z,9.55
2023-08-02T05:52:37.474Z,6.43
2023-08-02T05:55:04.315Z,7.53
2023-08-02T05:57:30.875Z,10.95
2023-08-02T05:59:57.383Z,7.57
2023-08-02T06:02:23.948Z,10.15
2023-08-02T06:04:50.585Z,10.15
2023-08-02T06:07:17.277Z,7.47
2023-08-02T06:09:43.786Z,5.15
2023-08-02T06:12:10.356Z,8.27
2023-08-02T06:14:36.933Z,7.80
2023-08-02T06:17:03.601Z,6.72
2023-08-02T06:19:30.974Z,6.13
2023-08-02T06:21:57.742Z,10.60
2023-08-02T06:24:24.328Z,8.63
2023-08-02T06:26:50.936Z,8.15
2023-08-02T06:29:17.507Z,8.77
2023-08-02T06:31:44.239Z,8.57
2023-08-02T06:34:11.147Z,10.50
2023-08-02T06:36:39.507Z,8.40
2023-08-02T06:39:06.606Z,8.07
2023-08-02T06:41:33.169Z,7.55
2023-08-02T06:43:59.864Z,6.68
2023-08-02T06:46:26.507Z,5.72
2023-08-02T06:48:53.084Z,6.32
2023-08-02T06:51:19.639Z,6.28
2023-08-02T06:53:46.157Z,6.82
2023-08-02T06:56:14.179Z,7.00
2023-08-02T06:58:43.724Z,5.32
2023-08-02T07:01:17.524Z,4.97
2023-08-02T07:03:44.640Z,4.22
2023-08-02T07:06:19.387Z,4.15
2023-08-02T07:08:46.401Z,6.25
2023-08-02T07:11:26.068Z,4.22
2023-08-02T07:13:57.280Z,4.82
2023-08-02T07:16:23.897Z,3.50
2023-08-02T07:18:50.450Z,3.83
2023-08-02T07:21:16.988Z,2.63
2023-08-02T07:23:43.535Z,5.05
2023-08-02T07:26:10.731Z,4.60
2023-08-02T07:28:37.258Z,4.10
2023-08-02T07:31:11.471Z,2.53
2023-08-02T07:33:38.136Z,2.45
2023-08-02T07:36:05.275Z,3.28
2023-08-02T07:38:32.320Z,3.35
2023-08-02T07:40:58.855Z,4.13
2023-08-02T07:43:25.496Z,4.22
2023-08-02T07:45:52.096Z,2.80
2023-08-02T07:48:18.641Z,5.43
2023-08-02T07:50:45.220Z,2.60
2023-08-02T07:53:11.824Z,2.03
2023-08-02T07:55:38.410Z,2.17
2023-08-02T07:58:04.973Z,3.38
2023-08-02T08:00:31.531Z,3.28
2023-08-02T08:02:58.141Z,2.20
2023-08-02T08:05:26.544Z,1.83
2023-08-02T08:07:53.183Z,3.40
2023-08-02T08:10:19.860Z,6.03
2023-08-02T08:12:46.426Z,1.13
2023-08-02T08:15:12.965Z,0.90
2023-08-02T08:17:39.535Z,2.17
2023-08-02T08:20:06.997Z,1.48
2023-08-02T08:22:33.960Z,1.85
2023-08-02T08:25:00.627Z,2.33
2023-08-02T08:27:27.233Z,3.58
2023-08-02T08:29:53.780Z,2.00
2023-08-02T08:32:21.359Z,3.47
2023-08-02T08:34:47.965Z,3.55
2023-08-02T08:37:14.501Z,1.55
2023-08-02T08:39:41.123Z,3.33
2023-08-02T08:42:08.848Z,5.30
2023-08-02T08:44:39.184Z,5.07
2023-08-02T08:47:09.040Z,11.48
2023-08-02T08:49:35.633Z,6.53
2023-08-02T08:52:07.486Z,4.65
2023-08-02T08:54:37.107Z,4.72
2023-08-02T08:57:05.770Z,2.97
2023-08-02T08:59:32.602Z,5.80
2023-08-02T09:02:00.167Z,4.10
2023-08-02T09:04:27.208Z,2.88
2023-08-02T09:06:53.751Z,5.88
2023-08-02T09:09:20.310Z,3.47
2023-08-02T09:11:47.094Z,3.33
2023-08-02T09:14:17.606Z,5.07
2023-08-02T09:17:04.266Z,3.40
2023-08-02T09:19:32.853Z,8.43
2023-08-02T09:22:17.991Z,6.53
2023-08-02T09:24:46.284Z,9.27
2023-08-02T09:27:18.258Z,7.07
2023-08-02T09:29:46.160Z,9.93
2023-08-02T09:32:15.635Z,5.88
2023-08-02T09:34:50.107Z,8.65
2023-08-02T09:42:18.661Z,13.02
2023-08-02T09:45:11.761Z,8.88
2023-08-02T09:47:38.338Z,15.95
2023-08-02T09:50:12.690Z,11.60
2023-08-02T09:55:07.511Z,13.25
2023-08-02T09:57:34.653Z,15.45
2023-08-02T10:00:07.587Z,14.73
2023-08-02T10:02:35.894Z,11.20
2023-08-02T10:05:03.764Z,20.02
2023-08-02T10:10:10.949Z,13.70
2023-08-02T10:12:37.691Z,16.17
2023-08-02T10:15:04.635Z,15.90
2023-08-02T10:17:32.596Z,21.00
2023-08-02T10:20:03.603Z,18.40
2023-08-02T10:22:31.375Z,19.27
2023-08-02T10:24:58.262Z,20.88
2023-08-02T10:27:25.326Z,25.27
2023-08-02T10:29:53.783Z,13.93
2023-08-02T10:32:22.994Z,14.80
2023-08-02T10:34:51.285Z,13.80
2023-08-02T10:37:19.731Z,11.88
2023-08-02T10:39:46.195Z,11.00
2023-08-02T10:42:17.759Z,8.75
2023-08-02T10:44:56.352Z,17.45
2023-08-02T10:47:29.548Z,19.90
2023-08-02T10:49:56.974Z,15.88
2023-08-02T10:52:40.250Z,16.98
2023-08-02T10:55:14.936Z,18.27
2023-08-02T10:58:08.101Z,16.02
2023-08-02T11:00:38.426Z,19.08
2023-08-02T11:03:05.143Z,17.65
2023-08-02T11:05:46.251Z,12.93
2023-08-02T11:08:12.999Z,11.35
2023-08-02T11:10:55.913Z,14.07
2023-08-02T11:13:23.810Z,11.40
2023-08-02T11:16:04.390Z,12.60
2023-08-02T11:18:34.861Z,12.32
2023-08-02T11:21:12.200Z,12.13
2023-08-02T11:23:39.525Z,11.95
2023-08-02T11:26:25.738Z,14.57
2023-08-02T11:28:53.612Z,11.93
2023-08-02T11:31:24.245Z,7.68
2023-08-02T11:33:50.917Z,11.90
2023-08-02T11:36:17.820Z,8.93
2023-08-02T11:38:44.509Z,9.65
2023-08-02T11:41:19.780Z,13.98
2023-08-02T11:43:46.760Z,10.73
2023-08-02T11:46:15.172Z,10.35
2023-08-02T11:48:42.142Z,11.48
2023-08-02T11:51:10.784Z,10.20
2023-08-02T11:53:56.750Z,7.30
2023-08-02T11:56:27.648Z,7.47
2023-08-02T11:58:54.530Z,11.23
2023-08-02T12:01:21.650Z,11.20
2023-08-02T12:03:55.044Z,10.73
2023-08-02T12:06:21.650Z,11.05
2023-08-02T12:08:56.220Z,9.75
2023-08-02T12:11:23.639Z,14.35
2023-08-02T12:13:50.478Z,16.88
2023-08-02T12:16:17.914Z,11.23
2023-08-02T12:18:55.151Z,12.27
2023-08-02T12:21:22.834Z,11.93
2023-08-02T12:26:36.695Z,9.30
2023-08-02T12:29:04.082Z,12.50
2023-08-02T12:31:46.628Z,19.58
2023-08-02T12:34:13.524Z,16.13
2023-08-02T12:36:40.225Z,21.85
2023-08-02T12:39:06.915Z,17.40
2023-08-02T12:41:33.565Z,14.48
2023-08-02T12:44:04.219Z,14.30
2023-08-02T12:46:32.661Z,22.25
2023-08-02T12:48:59.190Z,16.67
2023-08-02T12:51:25.792Z,22.90
2023-08-02T12:53:52.352Z,27.90
2023-08-02T12:56:18.898Z,19.58
2023-08-02T12:58:45.470Z,20.17
2023-08-02T13:01:12.130Z,17.80
2023-08-02T13:03:38.808Z,19.50
2023-08-02T13:06:05.619Z,18.30
2023-08-02T13:08:32.292Z,17.75
2023-08-02T13:10:58.945Z,14.77
2023-08-02T13:13:25.570Z,15.40
2023-08-02T13:15:52.938Z,11.50
2023-08-02T13:18:19.614Z,12.18
2023-08-02T13:20:46.210Z,13.05
2023-08-02T13:23:12.797Z,12.30
2023-08-02T13:25:39.726Z,15.95
2023-08-02T13:28:07.836Z,13.52
2023-08-02T13:30:35.044Z,23.83
2023-08-02T13:33:01.786Z,16.30
2023-08-02T13:35:28.458Z,16.70
2023-08-02T13:37:54.993Z,14.82
2023-08-02T13:40:21.553Z,17.80
2023-08-02T13:42:48.121Z,17.42
2023-08-02T13:45:14.715Z,16.17
2023-08-02T13:47:41.329Z,17.65
2023-08-02T13:50:08.137Z,17.52
2023-08-02T13:52:35.000Z,19.98
2023-08-02T13:55:02.597Z,16.23
2023-08-02T13:57:29.132Z,17.40
2023-08-02T13:59:55.664Z,32.22
2023-08-02T14:02:22.373Z,21.73
2023-08-02T14:04:49.698Z,19.42
2023-08-02T14:07:16.420Z,19.80
2023-08-02T14:09:43.015Z,25.92
2023-08-02T14:12:16.296Z,26.60
2023-08-02T14:14:43.862Z,20.08
2023-08-02T14:17:10.686Z,26.50
2023-08-02T14:19:37.381Z,25.10
2023-08-02T14:22:05.367Z,19.98
2023-08-02T14:24:32.059Z,28.70
2023-08-02T14:26:58.644Z,20.23
2023-08-02T14:29:25.176Z,19.85
2023-08-02T14:31:51.856Z,25.95
2023-08-02T14:34:23.193Z,26.20
2023-08-02T14:36:49.992Z,32.13
2023-08-02T14:39:16.638Z,28.83
2023-08-02T14:41:43.166Z,36.00
2023-08-02T14:44:09.851Z,26.85
2023-08-02T14:46:36.495Z,52.53
2023-08-02T14:49:03.183Z,21.40
2023-08-02T14:51:29.716Z,23.13
2023-08-02T14:54:07.578Z,18.33
2023-08-02T14:56:38.953Z,26.77
2023-08-02T14:59:05.518Z,28.73
2023-08-02T15:01:32.035Z,19.77
2023-08-02T15:03:58.549Z,24.63
2023-08-02T15:06:28.092Z,19.55
2023-08-02T15:08:54.747Z,20.75
2023-08-02T15:11:21.574Z,29.30
2023-08-02T15:13:48.111Z,23.90
2023-08-02T15:16:14.768Z,20.25
2023-08-02T15:18:41.650Z,26.83
2023-08-02T15:21:08.362Z,24.27
2023-08-02T15:23:34.912Z,21.65
2023-08-02T15:26:01.506Z,23.77
2023-08-02T15:28:28.070Z,22.60
2023-08-02T15:30:54.754Z,23.05
2023-08-02T15:33:21.419Z,22.15
2023-08-02T15:35:48.145Z,22.13
2023-08-02T15:38:14.668Z,27.65
2023-08-02T15:40:41.217Z,20.60
2023-08-02T15:43:08.499Z,22.00
2023-08-02T15:45:35.144Z,23.30
2023-08-02T15:48:01.725Z,23.83
2023-08-02T15:50:28.345Z,22.80
2023-08-02T15:52:54.938Z,23.73
2023-08-02T15:55:22.843Z,25.70
2023-08-02T15:57:50.918Z,19.60
2023-08-02T16:00:18.830Z,17.55
2023-08-02T16:02:45.992Z,26.58
2023-08-02T16:05:12.744Z,19.13
2023-08-02T16:07:40.971Z,23.20
2023-08-02T16:10:07.837Z,26.55
2023-08-02T16:12:34.411Z,27.73
2023-08-02T16:15:00.998Z,25.67
2023-08-02T16:17:27.575Z,18.25
2023-08-02T16:19:54.157Z,20.17
2023-08-02T16:22:20.672Z,20.30
2023-08-02T16:24:47.241Z,16.23
2023-08-02T16:27:14.690Z,19.55
2023-08-02T16:29:41.817Z,20.90
2023-08-02T16:32:08.669Z,16.60
2023-08-02T16:34:35.318Z,18.15
2023-08-02T16:37:01.871Z,17.25
2023-08-02T16:39:28.417Z,16.50
2023-08-02T16:41:54.974Z,14.43
2023-08-02T16:44:21.551Z,18.73
2023-08-02T16:46:48.167Z,18.17
2023-08-02T16:49:14.692Z,15.60
2023-08-02T16:51:41.630Z,16.73
2023-08-02T16:54:08.554Z,11.82
2023-08-02T16:56:35.109Z,13.25
2023-08-02T16:59:01.798Z,9.95
2023-08-02T17:01:28.473Z,11.63
2023-08-02T17:03:55.062Z,6.82
2023-08-02T17:06:21.857Z,12.60
2023-08-02T17:08:48.631Z,14.23
2023-08-02T17:11:15.170Z,12.50
2023-08-02T17:13:41.721Z,12.15
2023-08-02T17:16:08.373Z,9.57
2023-08-02T17:18:34.908Z,10.15
2023-08-02T17:21:01.511Z,16.92
2023-08-02T17:23:29.047Z,15.23
2023-08-02T17:25:55.637Z,25.55
2023-08-02T17:28:22.218Z,34.92
2023-08-02T17:30:48.813Z,26.10
2023-08-02T17:33:15.548Z,20.50
2023-08-02T17:35:42.170Z,17.20
2023-08-02T17:38:08.718Z,16.73
2023-08-02T17:40:35.496Z,24.70
2023-08-02T17:43:02.170Z,14.90
2023-08-02T17:45:32.336Z,12.70
2023-08-02T17:47:59.181Z,13.60
2023-08-02T17:50:25.968Z,16.95
2023-08-02T17:52:52.583Z,14.07
2023-08-02T17:55:19.167Z,12.88
2023-08-02T17:57:45.730Z,16.33
2023-08-02T18:00:12.718Z,19.40
2023-08-02T18:02:39.341Z,18.55
2023-08-02T18:05:06.716Z,22.58
2023-08-02T18:07:33.294Z,20.52
2023-08-02T18:09:59.877Z,12.98
2023-08-02T18:12:26.480Z,17.75
2023-08-02T18:14:53.005Z,10.10
2023-08-02T18:17:19.681Z,15.57
2023-08-02T18:19:46.723Z,9.63
2023-08-02T18:22:13.421Z,13.63
2023-08-02T18:24:42.981Z,16.60
2023-08-02T18:27:10.154Z,8.85
2023-08-02T18:29:36.704Z,11.93
2023-08-02T18:32:03.550Z,12.18
2023-08-02T18:34:30.128Z,12.52
2023-08-02T18:36:56.705Z,12.52
2023-08-02T18:39:23.344Z,12.25
2023-08-02T18:41:49.879Z,8.40
2023-08-02T18:44:16.449Z,10.05
2023-08-02T18:46:43.089Z,11.70
2023-08-02T18:49:09.636Z,9.45
2023-08-02T18:51:36.276Z,10.82
2023-08-02T18:54:02.855Z,9.52
2023-08-02T18:56:29.458Z,7.68
2023-08-02T18:58:57.017Z,10.73
2023-08-02T19:01:23.667Z,12.10
2023-08-02T19:03:52.042Z,7.35
2023-08-02T19:06:18.736Z,9.50
2023-08-02T19:08:47.530Z,11.98
2023-08-02T19:11:22.301Z,8.65
2023-08-02T19:13:49.641Z,7.18
2023-08-02T19:16:16.623Z,9.35
2023-08-02T19:18:43.643Z,9.75
2023-08-02T19:21:13.742Z,8.65
2023-08-02T19:23:43.908Z,11.85
2023-08-02T19:26:17.257Z,8.35
2023-08-02T19:28:44.144Z,12.00
2023-08-02T19:31:10.742Z,7.45
2023-08-02T19:33:45.583Z,9.95
2023-08-02T19:36:20.059Z,6.20
2023-08-02T19:38:46.687Z,9.77
2023-08-02T19:41:24.002Z,8.90
2023-08-02T19:43:50.669Z,10.70
2023-08-02T19:46:17.295Z,12.18
2023-08-02T19:48:44.059Z,11.35
2023-08-02T19:51:10.724Z,9.57
2023-08-02T19:53:37.446Z,12.43
2023-08-02T19:56:06.463Z,8.82
2023-08-02T19:58:33.081Z,9.38
2023-08-02T20:00:59.658Z,11.23
2023-08-02T20:03:27.341Z,6.60
2023-08-02T20:06:01.125Z,10.68
2023-08-02T20:08:31.148Z,10.27
2023-08-02T20:11:04.409Z,11.40
2023-08-02T20:13:42.075Z,8.90
2023-08-02T20:16:11.597Z,15.00
2023-08-02T20:18:38.294Z,11.25
2023-08-02T20:21:20.470Z,11.57
2023-08-02T20:23:49.567Z,15.93
2023-08-02T20:26:18.885Z,13.20
2023-08-02T20:28:54.243Z,13.60
2023-08-02T20:31:22.235Z,17.77
2023-08-02T20:33:50.632Z,12.32
2023-08-02T20:36:18.729Z,16.48
2023-08-02T20:38:47.082Z,9.82
2023-08-02T20:41:18.220Z,11.90
2023-08-02T20:43:46.658Z,11.43
2023-08-02T20:46:16.932Z,9.93
2023-08-02T20:48:43.730Z,7.10
2023-08-02T20:51:14.338Z,7.50
2023-08-02T20:53:41.243Z,13.48
2023-08-02T20:56:09.502Z,10.73
2023-08-02T21:01:05.386Z,10.55
2023-08-02T21:03:32.041Z,8.32
2023-08-02T21:05:59.686Z,10.70
2023-08-02T21:08:26.322Z,9.20
2023-08-02T21:10:52.911Z,11.88
2023-08-02T21:13:19.488Z,6.00
2023-08-02T21:15:47.529Z,8.93
2023-08-02T21:18:14.377Z,8.88
2023-08-02T21:20:45.760Z,15.88
2023-08-02T21:23:17.111Z,10.70
2023-08-02T21:25:45.666Z,9.90
2023-08-02T21:28:14.550Z,10.77
2023-08-02T21:30:43.646Z,8.70
2023-08-02T21:33:11.362Z,8.38
2023-08-02T21:35:38.432Z,11.20
2023-08-02T21:38:05.286Z,7.82
2023-08-02T21:40:31.857Z,9.55
2023-08-02T21:42:58.398Z,8.20
2023-08-02T21:45:24.939Z,8.20
2023-08-02T21:47:51.888Z,7.65
2023-08-02T21:50:19.991Z,6.07
2023-08-02T21:52:50.177Z,10.15
2023-08-02T21:55:18.344Z,9.40
2023-08-02T21:57:44.904Z,9.80
2023-08-02T22:00:11.869Z,6.50
2023-08-02T22:02:42.257Z,8.95
2023-08-02T22:05:12.515Z,10.63
2023-08-02T22:07:41.157Z,10.98
2023-08-02T22:10:15.467Z,10.43
2023-08-02T22:12:46.139Z,8.73
2023-08-02T22:15:13.045Z,6.47
2023-08-02T22:17:39.607Z,7.63
2023-08-02T22:20:07.013Z,7.47
2023-08-02T22:22:33.626Z,6.63
2023-08-02T22:25:00.285Z,7.70
2023-08-02T22:27:28.245Z,9.57
2023-08-02T22:29:59.621Z,12.05
2023-08-02T22:32:27.080Z,9.95
2023-08-02T22:34:53.751Z,8.15
2023-08-02T22:37:20.321Z,11.57
2023-08-02T22:39:46.860Z,11.63
2023-08-02T22:42:13.488Z,13.90
2023-08-02T22:44:40.060Z,16.75
2023-08-02T22:47:06.730Z,22.60
2023-08-02T22:50:43.478Z,22.30
2023-08-02T22:52:23.233Z,18.83
2023-08-02T22:54:52.387Z,27.52
2023-08-02T22:57:31.460Z,30.60
2023-08-02T22:59:58.575Z,21.25
2023-08-02T23:02:30.426Z,28.98
2023-08-02T23:04:57.125Z,25.90
2023-08-02T23:07:29.811Z,25.88
2023-08-02T23:10:00.331Z,28.75
2023-08-02T23:12:27.107Z,32.10
2023-08-02T23:14:59.083Z,17.52
2023-08-02T23:17:25.962Z,20.50
2023-08-02T23:19:52.485Z,26.38
2023-08-02T23:22:19.007Z,23.75
2023-08-02T23:24:45.824Z,19.92
2023-08-02T23:27:26.050Z,19.67
2023-08-02T23:29:53.277Z,14.57
2023-08-02T23:32:20.471Z,17.98
2023-08-02T23:34:47.031Z,16.70
2023-08-02T23:37:13.597Z,13.65
2023-08-02T23:39:40.149Z,13.75
2023-08-02T23:42:07.269Z,10.13
2023-08-02T23:44:33.933Z,18.20
2023-08-02T23:47:00.565Z,12.77
2023-08-02T23:49:27.206Z,15.52
2023-08-02T23:51:53.743Z,10.85
2023-08-02T23:54:20.323Z,9.80
2023-08-02T23:56:46.843Z,13.98
2023-08-02T23:59:13.403Z,9.93
